createdAt,value
2022-11-16T00:02:07.770Z,92.20
2022-11-16T00:04:34.310Z,92.78
2022-11-16T00:07:02.705Z,92.88
2022-11-16T00:09:31.855Z,92.78
2022-11-16T00:12:06.590Z,92.74
2022-11-16T00:14:35.237Z,92.07
2022-11-16T00:17:02.170Z,92.47
2022-11-16T00:19:29.136Z,92.63
2022-11-16T00:21:56.167Z,93.55
2022-11-16T00:24:23.535Z,94.48
2022-11-16T00:26:51.314Z,94.81
2022-11-16T00:29:23.561Z,94.06
2022-11-16T00:31:51.142Z,94.12
2022-11-16T00:34:18.331Z,94.13
2022-11-16T00:36:45.460Z,94.46
2022-11-16T00:39:14.298Z,93.67
2022-11-16T00:41:41.626Z,93.54
2022-11-16T00:44:08.597Z,93.58
2022-11-16T00:46:35.290Z,93.42
2022-11-16T00:49:01.675Z,93.41
2022-11-16T00:51:28.028Z,93.62
2022-11-16T00:53:54.957Z,92.87
2022-11-16T00:56:21.303Z,93.72
2022-11-16T00:58:47.679Z,93.82
2022-11-16T01:01:14.925Z,94.18
2022-11-16T01:03:41.397Z,94.26
2022-11-16T01:06:10.368Z,94.21
2022-11-16T01:08:38.560Z,93.52
2022-11-16T01:11:24.038Z,94.10
2022-11-16T01:13:51.321Z,94.73
2022-11-16T01:16:19.789Z,95.22
2022-11-16T01:18:50.851Z,95.02
2022-11-16T01:21:18.333Z,94.59
2022-11-16T01:23:44.981Z,93.90
2022-11-16T01:26:11.376Z,94.32
2022-11-16T01:28:38.046Z,93.87
2022-11-16T01:31:04.577Z,93.98
2022-11-16T01:33:31.058Z,95.74
2022-11-16T01:35:57.784Z,97.18
2022-11-16T01:38:29.364Z,97.54
2022-11-16T01:40:56.199Z,96.76
2022-11-16T01:43:25.204Z,97.60
2022-11-16T01:45:52.231Z,97.10
2022-11-16T01:48:28.030Z,97.13
2022-11-16T01:50:56.194Z,96.24
2022-11-16T01:53:23.279Z,95.82
2022-11-16T01:55:50.167Z,95.41
2022-11-16T01:58:22.933Z,94.94
2022-11-16T02:00:49.802Z,94.55
2022-11-16T02:03:18.621Z,94.52
2022-11-16T02:06:01.207Z,94.40
2022-11-16T02:09:06.908Z,94.95
2022-11-16T02:11:36.506Z,95.46
2022-11-16T02:14:17.919Z,95.68
2022-11-16T02:17:01.979Z,95.58
2022-11-16T02:20:10.309Z,94.71
2022-11-16T02:22:54.934Z,94.46
2022-11-16T02:25:46.073Z,95.78
2022-11-16T02:28:34.594Z,95.61
2022-11-16T02:31:05.802Z,94.57
2022-11-16T02:33:37.805Z,95.32
2022-11-16T02:36:09.242Z,95.00
2022-11-16T02:38:40.803Z,94.84
2022-11-16T02:41:14.509Z,95.70
2022-11-16T02:43:48.249Z,95.49
2022-11-16T02:46:38.787Z,95.47
2022-11-16T02:49:11.482Z,95.75
2022-11-16T02:51:40.385Z,95.51
2022-11-16T02:54:14.783Z,95.66
2022-11-16T02:57:13.973Z,96.51
2022-11-16T02:59:44.695Z,95.60
2022-11-16T03:02:26.576Z,96.32
2022-11-16T03:05:31.929Z,95.42
2022-11-16T03:08:09.222Z,95.35
2022-11-16T03:10:58.522Z,95.04
2022-11-16T03:13:30.448Z,95.28
2022-11-16T03:15:57.856Z,95.51
2022-11-16T03:18:28.934Z,95.64
2022-11-16T03:21:05.910Z,96.11
2022-11-16T03:23:32.434Z,95.59
2022-11-16T03:26:05.173Z,95.70
2022-11-16T03:28:39.303Z,95.18
2022-11-16T03:31:15.075Z,96.12
2022-11-16T03:33:48.555Z,97.63
2022-11-16T03:36:42.577Z,98.70
2022-11-16T03:39:17.111Z,98.82
2022-11-16T03:41:46.149Z,99.21
2022-11-16T03:44:14.279Z,98.88
2022-11-16T03:46:45.842Z,100.00
2022-11-16T03:49:12.367Z,100.00
2022-11-16T03:51:38.778Z,99.80
2022-11-16T03:54:05.870Z,100.00
2022-11-16T03:56:32.342Z,100.00
2022-11-16T03:58:58.707Z,100.00
2022-11-16T04:01:25.463Z,99.62
2022-11-16T04:03:51.797Z,99.55
2022-11-16T04:06:37.397Z,100.00
2022-11-16T04:09:22.470Z,98.68
2022-11-16T04:12:08.250Z,97.91
2022-11-16T04:14:53.365Z,97.73
2022-11-16T04:17:42.602Z,98.17
2022-11-16T04:20:29.873Z,97.84
2022-11-16T04:23:30.111Z,97.77
2022-11-16T04:25:57.305Z,97.53
2022-11-16T04:28:31.331Z,96.83
2022-11-16T04:31:19.737Z,98.59
2022-11-16T04:34:05.091Z,98.84
2022-11-16T04:36:50.278Z,99.10
2022-11-16T04:39:16.505Z,98.79
2022-11-16T04:42:01.706Z,98.23
2022-11-16T04:44:50.616Z,99.23
2022-11-16T04:47:17.333Z,98.06
2022-11-16T04:49:43.724Z,97.49
2022-11-16T04:52:10.349Z,97.19
2022-11-16T04:54:37.286Z,97.25
2022-11-16T04:57:03.662Z,96.96
2022-11-16T04:59:29.966Z,96.87
2022-11-16T05:02:08.737Z,95.89
2022-11-16T05:04:40.960Z,96.53
2022-11-16T05:07:10.910Z,97.46
2022-11-16T05:09:43.321Z,99.70
2022-11-16T05:12:11.287Z,100.00
2022-11-16T05:14:37.609Z,100.00
2022-11-16T05:17:04.475Z,100.00
2022-11-16T05:19:49.408Z,100.00
2022-11-16T05:22:15.794Z,100.00
2022-11-16T05:24:42.142Z,99.97
2022-11-16T05:27:12.770Z,99.77
2022-11-16T05:29:41.054Z,99.61
2022-11-16T05:32:08.123Z,99.36
2022-11-16T05:34:34.561Z,99.87
2022-11-16T05:37:00.966Z,99.43
2022-11-16T05:39:28.007Z,99.11
2022-11-16T05:41:54.686Z,100.00
2022-11-16T05:44:21.056Z,99.57
2022-11-16T05:46:48.061Z,99.58
2022-11-16T05:49:15.097Z,99.83
2022-11-16T05:51:43.762Z,99.90
2022-11-16T05:54:16.335Z,99.51
2022-11-16T05:56:42.902Z,100.00
2022-11-16T05:59:15.195Z,100.00
2022-11-16T06:01:43.143Z,99.41
2022-11-16T06:04:09.912Z,99.57
2022-11-16T06:06:36.525Z,99.34
2022-11-16T06:09:03.663Z,99.75
2022-11-16T06:11:35.501Z,100.00
2022-11-16T06:14:02.525Z,100.00
2022-11-16T06:16:29.367Z,100.00
2022-11-16T06:18:55.719Z,100.00
2022-11-16T06:21:22.071Z,100.00
2022-11-16T06:23:48.951Z,100.00
2022-11-16T06:26:15.334Z,100.00
2022-11-16T06:28:41.662Z,98.95
2022-11-16T06:31:08.351Z,99.41
2022-11-16T06:33:34.735Z,98.67
2022-11-16T06:36:01.073Z,99.59
2022-11-16T06:38:28.280Z,99.44
2022-11-16T06:40:57.672Z,100.00
2022-11-16T06:43:25.706Z,100.00
2022-11-16T06:45:57.648Z,99.99
2022-11-16T06:48:24.021Z,100.00
2022-11-16T06:50:52.524Z,100.00
2022-11-16T06:53:22.461Z,100.00
2022-11-16T06:55:53.070Z,100.00
2022-11-16T06:58:19.434Z,100.00
2022-11-16T07:00:45.756Z,100.00
2022-11-16T07:03:12.534Z,100.00
2022-11-16T07:05:41.745Z,100.00
2022-11-16T07:08:08.460Z,100.00
2022-11-16T07:10:35.345Z,100.00
2022-11-16T07:13:03.330Z,100.00
2022-11-16T07:15:30.033Z,99.93
2022-11-16T07:17:56.895Z,99.39
2022-11-16T07:20:23.915Z,99.12
2022-11-16T07:22:50.758Z,98.83
2022-11-16T07:25:17.073Z,98.03
2022-11-16T07:27:43.421Z,98.18
2022-11-16T07:30:10.215Z,98.76
2022-11-16T07:32:39.683Z,98.93
2022-11-16T07:35:06.942Z,100.00
2022-11-16T07:37:33.334Z,100.00
2022-11-16T07:39:59.652Z,100.00
2022-11-16T07:42:26.642Z,100.00
2022-11-16T07:44:53.037Z,100.00
2022-11-16T07:47:19.348Z,100.00
2022-11-16T07:49:45.677Z,100.00
2022-11-16T07:52:12.024Z,100.00
2022-11-16T07:54:38.433Z,100.00
2022-11-16T07:57:05.138Z,100.00
2022-11-16T07:59:31.488Z,100.00
2022-11-16T08:01:59.261Z,100.00
2022-11-16T08:04:26.180Z,100.00
2022-11-16T08:06:52.677Z,100.00
2022-11-16T08:09:19.455Z,99.56
2022-11-16T08:11:47.018Z,100.00
2022-11-16T08:14:13.853Z,99.64
2022-11-16T08:16:40.800Z,98.50
2022-11-16T08:19:07.114Z,98.56
2022-11-16T08:21:33.511Z,98.66
2022-11-16T08:23:59.894Z,99.09
2022-11-16T08:26:27.442Z,99.68
2022-11-16T08:28:55.561Z,99.73
2022-11-16T08:31:25.439Z,99.36
2022-11-16T08:33:52.863Z,99.03
2022-11-16T08:36:19.634Z,99.05
2022-11-16T08:38:47.537Z,99.41
2022-11-16T08:41:14.843Z,98.74
2022-11-16T08:43:42.801Z,98.45
2022-11-16T08:46:10.573Z,98.58
2022-11-16T08:48:38.130Z,99.54
2022-11-16T08:51:22.542Z,99.48
2022-11-16T08:53:49.945Z,98.91
2022-11-16T08:56:17.913Z,99.13
2022-11-16T08:58:46.653Z,98.01
2022-11-16T09:01:18.617Z,97.40
2022-11-16T09:03:46.563Z,96.84
2022-11-16T09:06:13.720Z,96.17
2022-11-16T09:08:42.574Z,93.88
2022-11-16T09:11:18.037Z,91.30
2022-11-16T09:13:46.025Z,89.60
2022-11-16T09:16:15.710Z,90.41
2022-11-16T09:18:48.649Z,87.14
2022-11-16T09:21:22.377Z,88.16
2022-11-16T09:23:49.856Z,90.31
2022-11-16T09:26:22.833Z,88.67
2022-11-16T09:29:07.745Z,87.36
2022-11-16T09:31:34.698Z,87.73
2022-11-16T09:34:01.393Z,80.60
2022-11-16T09:36:28.871Z,81.85
2022-11-16T09:39:23.645Z,81.40
2022-11-16T09:42:02.001Z,83.12
2022-11-16T09:45:14.638Z,84.13
2022-11-16T09:47:49.386Z,85.08
2022-11-16T09:50:28.853Z,85.00
2022-11-16T09:52:58.014Z,85.35
2022-11-16T09:55:49.617Z,86.07
2022-11-16T09:58:23.560Z,86.20
2022-11-16T10:00:57.186Z,86.66
2022-11-16T10:03:25.622Z,86.89
2022-11-16T10:06:01.362Z,87.57
2022-11-16T10:08:46.454Z,86.49
2022-11-16T10:11:19.269Z,86.86
2022-11-16T10:14:06.111Z,86.25
2022-11-16T10:17:24.832Z,83.89
2022-11-16T10:20:18.516Z,80.55
2022-11-16T10:23:18.860Z,80.92
2022-11-16T10:25:52.253Z,81.59
2022-11-16T10:29:01.050Z,80.52
2022-11-16T10:31:30.916Z,80.78
2022-11-16T10:33:59.332Z,81.03
2022-11-16T10:36:32.455Z,81.23
2022-11-16T10:39:00.635Z,80.99
2022-11-16T10:41:37.791Z,79.47
2022-11-16T10:44:24.624Z,80.06
2022-11-16T10:47:05.029Z,80.65
2022-11-16T10:49:58.296Z,78.96
2022-11-16T10:52:26.203Z,77.24
2022-11-16T10:54:53.339Z,78.41
2022-11-16T10:57:20.960Z,77.73
2022-11-16T10:59:54.215Z,77.24
2022-11-16T11:02:27.637Z,77.89
2022-11-16T11:05:17.804Z,77.80
2022-11-16T11:07:56.818Z,76.00
2022-11-16T11:10:28.910Z,74.00
2022-11-16T11:13:11.933Z,73.54
2022-11-16T11:15:40.814Z,74.78
2022-11-16T11:18:27.319Z,73.90
2022-11-16T11:21:13.651Z,72.17
2022-11-16T11:23:52.737Z,71.48
2022-11-16T11:26:36.502Z,72.53
2022-11-16T11:29:23.550Z,73.16
2022-11-16T11:31:56.039Z,74.62
2022-11-16T11:34:26.662Z,75.81
2022-11-16T11:37:02.798Z,75.99
2022-11-16T11:39:35.325Z,77.61
2022-11-16T11:42:22.970Z,78.59
2022-11-16T11:44:57.394Z,79.02
2022-11-16T11:50:33.254Z,79.59
2022-11-16T11:53:07.715Z,79.25
2022-11-16T11:55:34.945Z,78.28
2022-11-16T11:58:03.571Z,77.32
2022-11-16T12:00:44.281Z,76.37
2022-11-16T12:03:44.165Z,76.37
2022-11-16T12:06:19.854Z,76.18
2022-11-16T12:09:07.414Z,75.13
2022-11-16T12:11:41.404Z,75.40
2022-11-16T12:14:49.387Z,75.62
2022-11-16T12:17:16.060Z,74.38
2022-11-16T12:19:45.358Z,73.98
2022-11-16T12:22:31.763Z,74.39
2022-11-16T12:25:16.897Z,74.09
2022-11-16T12:27:59.022Z,73.63
2022-11-16T12:30:26.045Z,73.75
2022-11-16T12:33:26.349Z,73.20
2022-11-16T12:36:08.210Z,71.59
2022-11-16T12:38:49.159Z,71.64
2022-11-16T12:41:45.546Z,73.29
2022-11-16T12:44:17.133Z,73.30
2022-11-16T12:47:23.094Z,73.08
2022-11-16T12:50:01.270Z,74.13
2022-11-16T12:52:49.235Z,73.80
2022-11-16T12:55:52.679Z,75.74
2022-11-16T12:58:23.265Z,74.76
2022-11-16T13:00:57.267Z,74.86
2022-11-16T13:03:40.785Z,74.82
2022-11-16T13:06:12.779Z,74.94
2022-11-16T13:08:54.269Z,74.83
2022-11-16T13:11:32.841Z,75.64
2022-11-16T13:14:03.960Z,77.02
2022-11-16T13:16:31.009Z,76.98
2022-11-16T13:18:59.821Z,75.92
2022-11-16T13:21:44.499Z,77.19
2022-11-16T13:24:27.551Z,75.83
2022-11-16T13:27:17.902Z,76.68
2022-11-16T13:29:57.475Z,78.26
2022-11-16T13:32:43.384Z,78.13
2022-11-16T13:35:18.017Z,76.77
2022-11-16T13:37:49.077Z,78.07
2022-11-16T13:40:33.325Z,76.87
2022-11-16T13:43:11.845Z,77.42
2022-11-16T13:45:50.748Z,77.90
2022-11-16T13:48:26.874Z,77.86
2022-11-16T13:50:56.702Z,79.05
2022-11-16T13:56:16.113Z,77.78
2022-11-16T13:59:00.774Z,77.85
2022-11-16T14:01:58.272Z,76.67
2022-11-16T14:04:39.899Z,76.13
2022-11-16T14:07:29.300Z,76.97
2022-11-16T14:09:55.850Z,77.00
2022-11-16T14:12:37.794Z,78.00
2022-11-16T14:15:25.691Z,79.13
2022-11-16T14:17:58.205Z,78.63
2022-11-16T14:20:34.397Z,77.90
2022-11-16T14:23:32.181Z,79.08
2022-11-16T14:26:13.750Z,80.51
2022-11-16T14:29:12.752Z,82.09
2022-11-16T14:32:18.861Z,82.85
2022-11-16T14:34:48.087Z,82.08
2022-11-16T14:37:24.348Z,81.94
2022-11-16T14:39:53.537Z,81.19
2022-11-16T14:42:23.942Z,81.30
2022-11-16T14:44:58.330Z,81.09
2022-11-16T14:47:26.942Z,80.81
2022-11-16T14:49:56.336Z,81.38
2022-11-16T14:52:35.959Z,82.22
2022-11-16T14:55:07.170Z,83.35
2022-11-16T14:57:33.813Z,84.90
2022-11-16T15:00:21.302Z,84.85
2022-11-16T15:02:57.606Z,85.40
2022-11-16T15:05:33.249Z,84.43
2022-11-16T15:08:01.295Z,84.20
2022-11-16T15:10:29.077Z,84.00
2022-11-16T15:12:56.970Z,84.75
2022-11-16T15:15:26.722Z,85.23
2022-11-16T15:18:07.827Z,85.33
2022-11-16T15:20:37.969Z,84.83
2022-11-16T15:23:05.874Z,84.29
2022-11-16T15:25:40.913Z,84.18
2022-11-16T15:28:30.550Z,85.59
2022-11-16T15:30:59.960Z,85.61
2022-11-16T15:33:29.321Z,85.22
2022-11-16T15:35:56.346Z,85.24
2022-11-16T15:38:29.333Z,85.30
2022-11-16T15:41:00.700Z,85.00
2022-11-16T15:43:38.183Z,85.40
2022-11-16T15:46:13.811Z,85.95
2022-11-16T15:48:41.167Z,86.24
2022-11-16T15:51:15.113Z,86.72
2022-11-16T15:53:45.949Z,86.71
2022-11-16T15:56:14.742Z,88.07
2022-11-16T15:58:42.596Z,87.55
2022-11-16T16:01:11.360Z,87.96
2022-11-16T16:03:38.467Z,87.76
2022-11-16T16:06:06.000Z,88.27
2022-11-16T16:08:35.650Z,88.16
2022-11-16T16:11:25.475Z,88.23
2022-11-16T16:13:59.372Z,88.52
2022-11-16T16:16:33.051Z,89.58
2022-11-16T16:19:05.145Z,90.02
2022-11-16T16:21:46.579Z,90.47
2022-11-16T16:24:49.817Z,89.83
2022-11-16T16:27:27.724Z,89.53
2022-11-16T16:29:58.850Z,89.94
2022-11-16T16:32:26.578Z,91.08
2022-11-16T16:34:55.414Z,90.42
2022-11-16T16:37:22.533Z,90.66
2022-11-16T16:39:48.935Z,90.06
2022-11-16T16:42:17.399Z,91.64
2022-11-16T16:44:45.702Z,91.46
2022-11-16T16:47:13.530Z,90.45
2022-11-16T16:49:40.049Z,91.07
2022-11-16T16:52:07.033Z,91.73
2022-11-16T16:54:34.194Z,92.56
2022-11-16T16:57:02.274Z,91.63
2022-11-16T16:59:30.447Z,92.36
2022-11-16T17:01:58.473Z,92.38
2022-11-16T17:04:25.065Z,92.95
2022-11-16T17:06:53.682Z,92.03
2022-11-16T17:09:20.555Z,92.46
2022-11-16T17:11:47.640Z,92.82
2022-11-16T17:14:14.489Z,93.46
2022-11-16T17:16:40.965Z,93.85
2022-11-16T17:19:07.696Z,93.94
2022-11-16T17:21:34.428Z,93.04
2022-11-16T17:24:01.368Z,92.87
2022-11-16T17:26:29.313Z,93.29
2022-11-16T17:28:56.924Z,93.13
2022-11-16T17:31:25.492Z,93.06
2022-11-16T17:33:52.514Z,92.68
2022-11-16T17:36:19.394Z,93.17
2022-11-16T17:38:46.261Z,92.72
2022-11-16T17:41:17.902Z,93.64
2022-11-16T17:43:46.480Z,93.46
2022-11-16T17:46:15.555Z,93.27
2022-11-16T17:48:43.538Z,92.98
2022-11-16T17:51:15.902Z,93.19
2022-11-16T17:53:44.288Z,93.04
2022-11-16T17:56:15.098Z,92.17
2022-11-16T17:58:41.726Z,92.93
2022-11-16T18:01:08.293Z,93.43
2022-11-16T18:03:39.209Z,93.90
2022-11-16T18:06:13.123Z,94.06
2022-11-16T18:08:41.318Z,94.49
2022-11-16T18:11:16.428Z,94.07
2022-11-16T18:13:44.034Z,94.07
2022-11-16T18:16:18.181Z,93.43
2022-11-16T18:18:45.917Z,93.07
2022-11-16T18:21:20.067Z,93.21
2022-11-16T18:23:47.763Z,93.41
2022-11-16T18:26:18.626Z,92.82
2022-11-16T18:28:45.411Z,92.82
2022-11-16T18:31:16.341Z,93.58
2022-11-16T18:33:43.684Z,93.23
2022-11-16T18:36:12.027Z,93.35
2022-11-16T18:38:39.216Z,93.98
2022-11-16T18:41:11.406Z,94.54
2022-11-16T18:43:56.410Z,94.40
2022-11-16T18:46:25.562Z,95.33
2022-11-16T18:48:52.488Z,95.91
2022-11-16T18:51:21.007Z,97.82
2022-11-16T18:53:47.684Z,97.59
2022-11-16T18:56:14.788Z,97.39
2022-11-16T18:58:50.229Z,96.92
2022-11-16T19:01:18.990Z,96.16
2022-11-16T19:03:46.131Z,96.85
2022-11-16T19:06:13.085Z,95.94
2022-11-16T19:08:41.222Z,96.11
2022-11-16T19:11:13.070Z,96.12
2022-11-16T19:13:41.122Z,95.68
2022-11-16T19:16:09.243Z,94.84
2022-11-16T19:18:36.868Z,95.03
2022-11-16T19:21:09.129Z,95.20
2022-11-16T19:23:40.874Z,95.22
2022-11-16T19:26:07.463Z,95.00
2022-11-16T19:28:38.396Z,94.81
2022-11-16T19:31:15.681Z,96.11
2022-11-16T19:33:43.132Z,96.06
2022-11-16T19:36:10.908Z,94.62
2022-11-16T19:38:38.550Z,94.85
2022-11-16T19:41:06.043Z,94.36
2022-11-16T19:43:33.585Z,94.42
2022-11-16T19:46:05.707Z,94.36
2022-11-16T19:48:33.117Z,94.28
2022-11-16T19:51:08.149Z,94.84
2022-11-16T19:53:35.976Z,94.62
2022-11-16T19:56:03.648Z,95.09
2022-11-16T19:58:30.915Z,95.06
2022-11-16T20:01:06.283Z,94.67
2022-11-16T20:03:33.275Z,94.29
2022-11-16T20:06:05.347Z,94.32
2022-11-16T20:08:32.313Z,94.92
2022-11-16T20:10:58.688Z,95.24
2022-11-16T20:13:25.017Z,95.00
2022-11-16T20:15:51.947Z,94.84
2022-11-16T20:18:18.301Z,94.58
2022-11-16T20:20:44.615Z,95.01
2022-11-16T20:23:15.095Z,94.49
2022-11-16T20:25:41.507Z,93.95
2022-11-16T20:28:07.819Z,94.42
2022-11-16T20:30:34.514Z,95.66
2022-11-16T20:33:00.828Z,95.59
2022-11-16T20:35:27.141Z,95.64
2022-11-16T20:37:54.001Z,95.60
2022-11-16T20:40:20.309Z,95.30
2022-11-16T20:42:46.923Z,94.65
2022-11-16T20:45:13.673Z,93.82
2022-11-16T20:47:39.984Z,93.75
2022-11-16T20:50:06.874Z,93.52
2022-11-16T20:52:33.669Z,93.31
2022-11-16T20:55:00.625Z,93.91
2022-11-16T20:57:27.397Z,93.79
2022-11-16T20:59:53.698Z,93.58
2022-11-16T21:02:20.034Z,93.90
2022-11-16T21:04:46.894Z,95.17
2022-11-16T21:07:13.979Z,94.28
2022-11-16T21:09:59.209Z,95.46
2022-11-16T21:12:43.941Z,96.01
2022-11-16T21:15:11.035Z,95.67
2022-11-16T21:17:37.350Z,95.41
2022-11-16T21:20:26.352Z,95.69
2022-11-16T21:22:50.778Z,95.33
2022-11-16T21:25:17.094Z,94.45
2022-11-16T21:27:43.445Z,94.32
2022-11-16T21:30:10.295Z,94.55
2022-11-16T21:32:36.606Z,94.58
2022-11-16T21:35:03.012Z,94.89
2022-11-16T21:37:30.178Z,94.55
2022-11-16T21:39:56.493Z,95.35
2022-11-16T21:42:22.863Z,94.45
2022-11-16T21:44:49.813Z,94.93
2022-11-16T21:47:20.437Z,95.47
2022-11-16T21:50:08.677Z,95.36
2022-11-16T21:52:34.519Z,95.33
2022-11-16T21:55:00.830Z,94.68
2022-11-16T21:57:27.369Z,93.93
2022-11-16T21:59:54.193Z,94.30
2022-11-16T22:02:20.511Z,94.24
2022-11-16T22:05:05.249Z,94.19
2022-11-16T22:07:36.542Z,94.04
2022-11-16T22:10:08.961Z,94.38
2022-11-16T22:12:35.705Z,94.51
2022-11-16T22:15:03.693Z,94.12
2022-11-16T22:17:30.452Z,94.50
2022-11-16T22:19:56.892Z,94.88
2022-11-16T22:22:23.779Z,94.80
2022-11-16T22:24:50.750Z,95.15
2022-11-16T22:27:18.282Z,94.38
2022-11-16T22:29:44.617Z,95.18
2022-11-16T22:32:11.594Z,95.07
2022-11-16T22:34:37.978Z,94.17
2022-11-16T22:37:04.343Z,94.17
2022-11-16T22:39:30.873Z,93.70
2022-11-16T22:41:57.274Z,94.49
2022-11-16T22:44:23.601Z,94.61
2022-11-16T22:46:49.937Z,94.44
2022-11-16T22:49:16.470Z,93.40
2022-11-16T22:51:42.854Z,93.92
2022-11-16T22:54:11.290Z,94.40
2022-11-16T22:56:38.201Z,94.07
2022-11-16T22:59:05.683Z,94.23
2022-11-16T23:01:32.778Z,94.76
2022-11-16T23:03:59.616Z,94.24
2022-11-16T23:06:26.005Z,94.74
2022-11-16T23:08:52.596Z,94.08
2022-11-16T23:11:40.545Z,94.05
2022-11-16T23:14:28.694Z,94.15
2022-11-16T23:16:55.525Z,94.34
2022-11-16T23:19:40.925Z,94.52
2022-11-16T23:22:27.387Z,94.72
2022-11-16T23:25:12.134Z,95.18
2022-11-16T23:27:44.018Z,95.52
2022-11-16T23:30:13.093Z,95.04
2022-11-16T23:32:40.504Z,95.55
2022-11-16T23:35:07.957Z,95.46
2022-11-16T23:37:34.309Z,94.72
2022-11-16T23:40:00.735Z,95.08
2022-11-16T23:42:45.841Z,94.71
2022-11-16T23:45:12.141Z,94.92
2022-11-16T23:47:38.458Z,94.75
2022-11-16T23:50:05.782Z,94.69
2022-11-16T23:52:32.093Z,94.64
2022-11-16T23:54:58.399Z,93.71
2022-11-16T23:57:25.169Z,93.94
2022-11-16T23:59:51.854Z,95.68
